Time;durP1;ratioP1;P1;durP2;ratioP2;P2;SDS_P1;SDS_P2;PMS_P1;PMS_P2;Temp;Humidity;BMP_temperature;BMP_pressure;BME280_temperature;BME280_humidity;BME280_pressure;Samples;Min_cycle;Max_cycle;Signal;HPM_P1;HPM_P2
2022/08/12 00:44:15;;;;;;;5.40;5.10;;;;;;;23.08;70.60;94915.22;5053762;28;20437;-77
2022/08/12 00:46:49;;;;;;;6.13;5.53;;;;;;;23.10;70.07;94913.16;5054082;28;20532;-77
2022/08/12 00:49:17;;;;;;;7.67;4.93;;;;;;;23.10;69.81;94918.50;5053650;28;20453;-78
2022/08/12 00:54:34;;;;;;;5.00;4.70;;;;;;;23.04;70.25;94902.44;5053700;28;20429;-77
2022/08/12 00:57:04;;;;;;;5.13;4.73;;;;;;;23.08;69.96;94906.34;5053237;28;20466;-78
2022/08/12 00:59:31;;;;;;;5.30;4.90;;;;;;;23.03;69.78;94909.66;5053376;28;20522;-78
2022/08/12 01:02:01;;;;;;;5.80;5.30;;;;;;;23.06;69.52;94914.59;5053667;28;20437;-78
2022/08/12 01:12:49;;;;;;;5.30;4.90;;;;;;;23.11;70.09;94914.78;5053242;28;20500;-78
2022/08/12 01:15:17;;;;;;;6.13;5.53;;;;;;;23.14;70.01;94910.91;5053259;28;20457;-78
2022/08/12 01:17:45;;;;;;;5.67;5.17;;;;;;;23.17;70.01;94918.53;5052895;28;20433;-79
2022/08/12 01:20:20;;;;;;;6.83;4.90;;;;;;;23.18;70.14;94921.00;5053336;28;20535;-78
2022/08/12 01:23:07;;;;;;;5.00;4.60;;;;;;;23.21;70.49;94918.94;5053236;28;20473;-78
2022/08/12 01:25:41;;;;;;;6.43;4.63;;;;;;;23.24;69.79;94930.03;5018019;28;20495;-78
2022/08/12 01:28:12;;;;;;;4.90;4.57;;;;;;;23.21;69.55;94922.44;5053356;28;20461;-77
2022/08/12 01:30:42;;;;;;;6.50;4.90;;;;;;;23.22;69.58;94923.25;5052870;28;20430;-80
2022/08/12 01:33:15;;;;;;;5.60;5.10;;;;;;;23.16;69.66;94928.41;5053103;28;20465;-79
2022/08/12 01:35:48;;;;;;;5.57;5.00;;;;;;;23.07;69.97;94920.78;5052942;28;20979;-78
2022/08/12 01:38:20;;;;;;;5.50;5.10;;;;;;;23.08;70.13;94920.56;5052751;28;20449;-77
2022/08/12 01:40:49;;;;;;;5.37;4.90;;;;;;;23.10;70.30;94918.50;5052460;28;20512;-80
2022/08/12 01:43:20;;;;;;;5.80;5.30;;;;;;;23.20;70.00;94920.78;5017532;28;20449;-81
2022/08/12 01:45:58;;;;;;;6.10;5.50;;;;;;;23.23;70.27;94912.34;5018357;28;20434;-77
2022/08/12 01:48:34;;;;;;;5.30;4.80;;;;;;;23.26;69.70;94906.56;5052756;28;20532;-79
2022/08/12 01:51:04;;;;;;;5.10;4.60;;;;;;;23.21;69.58;94908.22;5052571;28;20547;-77
2022/08/12 01:53:45;;;;;;;5.83;5.33;;;;;;;23.17;69.77;94915.84;5051946;28;20806;-79
2022/08/12 01:56:15;;;;;;;5.57;5.17;;;;;;;23.16;69.61;94916.88;5052289;28;20526;-77
2022/08/12 02:01:29;;;;;;;4.97;4.57;;;;;;;23.09;69.60;94906.16;5052232;28;20797;-78
2022/08/12 02:12:48;;;;;;;4.90;4.50;;;;;;;22.99;69.54;94910.28;5052234;28;20567;-78
2022/08/12 02:15:21;;;;;;;4.80;4.40;;;;;;;22.99;69.57;94911.09;5033522;28;20453;-78
2022/08/12 02:18:12;;;;;;;6.30;4.97;;;;;;;22.96;70.51;94916.88;5052263;28;20454;-77
2022/08/12 02:20:48;;;;;;;6.93;5.63;;;;;;;22.83;71.04;94916.84;4990253;28;20502;-78
2022/08/12 02:23:18;;;;;;;5.63;4.97;;;;;;;22.70;71.78;94914.16;4990798;28;20534;-77
2022/08/12 02:25:46;;;;;;;5.17;4.67;;;;;;;22.64;72.08;94907.75;4990610;28;20971;-78
2022/08/12 02:28:15;;;;;;;6.20;5.20;;;;;;;22.63;71.95;94911.47;4990436;28;20448;-77
2022/08/12 02:30:42;;;;;;;5.07;4.73;;;;;;;22.62;71.83;94914.34;4990354;28;20484;-78
2022/08/12 02:33:10;;;;;;;6.20;5.60;;;;;;;22.63;71.74;94921.34;4990433;28;20498;-77
2022/08/12 02:35:38;;;;;;;6.23;4.40;;;;;;;22.66;71.50;94915.59;4990307;28;20784;-77
2022/08/12 02:38:07;;;;;;;4.10;3.70;;;;;;;22.72;71.40;94915.59;4990399;28;20480;-78
2022/08/12 02:40:36;;;;;;;5.30;4.90;;;;;;;22.73;71.40;94922.59;4990167;28;20571;-77
2022/08/12 02:43:12;;;;;;;5.80;5.40;;;;;;;22.75;71.53;94917.03;4990241;28;20455;-79
2022/08/12 02:45:50;;;;;;;4.53;4.13;;;;;;;22.81;71.11;94922.41;4990239;28;20498;-79
2022/08/12 02:48:26;;;;;;;5.90;5.37;;;;;;;22.90;70.85;94917.69;4990385;28;20447;-78
2022/08/12 02:50:57;;;;;;;4.83;4.37;;;;;;;22.96;70.78;94914.19;4990267;28;20452;-80
2022/08/12 02:53:26;;;;;;;4.27;3.97;;;;;;;23.03;70.73;94923.03;4990235;28;21117;-78
2022/08/12 02:55:54;;;;;;;5.83;5.43;;;;;;;22.97;70.69;94912.34;4990083;28;20452;-78
2022/08/12 02:58:21;;;;;;;5.40;4.50;;;;;;;23.03;70.17;94915.00;5039883;28;20825;-79
2022/08/12 03:00:50;;;;;;;4.97;4.57;;;;;;;23.02;70.44;94921.41;5051509;28;20484;-78
2022/08/12 03:03:21;;;;;;;5.30;4.90;;;;;;;22.91;71.01;94910.50;5051716;28;20453;-79
2022/08/12 03:05:51;;;;;;;4.60;4.30;;;;;;;23.01;70.60;94918.94;5053308;28;20441;-78
2022/08/12 03:08:23;;;;;;;6.70;5.23;;;;;;;23.05;70.81;94922.84;5055486;28;20476;-78
2022/08/12 03:10:52;;;;;;;5.30;4.90;;;;;;;23.08;70.68;94920.56;5055586;28;20484;-79
2022/08/12 03:13:25;;;;;;;5.30;4.80;;;;;;;23.07;70.96;94918.09;5055628;28;20445;-78
2022/08/12 03:15:55;;;;;;;5.10;4.70;;;;;;;23.09;70.69;94918.72;5055414;28;20477;-78
2022/08/12 03:18:28;;;;;;;6.27;4.43;;;;;;;23.18;70.69;94925.53;5055331;28;20452;-78
2022/08/12 03:20:55;;;;;;;5.30;4.40;;;;;;;23.23;70.29;94922.22;5055079;28;20485;-79
2022/08/12 03:23:22;;;;;;;6.33;4.80;;;;;;;23.26;70.19;94927.16;5055318;28;20441;-78
2022/08/12 03:25:52;;;;;;;7.20;5.17;;;;;;;23.26;70.37;94919.13;5055055;28;20450;-78
2022/08/12 03:28:49;;;;;;;5.87;5.37;;;;;;;23.27;70.34;94924.28;5055227;28;20449;-78
2022/08/12 03:31:10;;;;;;;9.10;4.80;;;;;;;23.26;70.69;94933.34;5054886;28;20812;-78
2022/08/12 03:33:39;;;;;;;4.87;4.47;;;;;;;23.13;70.43;94930.66;5055405;28;20438;-79
2022/08/12 03:36:08;;;;;;;8.40;6.03;;;;;;;23.01;71.36;94935.00;5055235;28;20998;-78
2022/08/12 03:38:39;;;;;;;4.73;4.30;;;;;;;22.99;71.37;94937.88;5055146;28;20507;-78
2022/08/12 04:00:37;;;;;;;5.90;5.40;;;;;;;22.77;76.94;94937.19;5054528;28;20527;-78
2022/08/12 04:03:50;;;;;;;5.90;5.30;;;;;;;22.74;77.61;94940.28;5054471;28;20464;-79
2022/08/12 04:05:54;;;;;;;7.53;5.93;;;;;;;22.73;78.15;94938.63;5054497;28;20937;-78
2022/08/12 04:08:25;;;;;;;8.70;5.30;;;;;;;22.78;78.38;94941.50;5054390;28;20442;-78
2022/08/12 04:13:39;;;;;;;6.90;5.50;;;;;;;22.78;78.23;94943.38;5054566;28;20806;-79
2022/08/12 04:16:09;;;;;;;10.67;5.57;;;;;;;22.83;78.21;94954.31;5054413;28;20454;-78
2022/08/12 04:18:39;;;;;;;6.63;5.93;;;;;;;22.84;78.88;94950.59;5035021;28;20507;-79
2022/08/12 04:21:08;;;;;;;6.07;5.20;;;;;;;22.74;79.24;94956.34;5054251;28;21002;-79
2022/08/12 04:23:37;;;;;;;6.93;6.20;;;;;;;22.73;79.67;94956.53;5054452;28;20442;-79
2022/08/12 04:26:04;;;;;;;5.57;5.00;;;;;;;22.62;80.23;94952.63;5054112;28;20979;-79
2022/08/12 04:28:31;;;;;;;5.83;5.33;;;;;;;22.55;79.62;94946.41;5035297;28;20438;-78
2022/08/12 04:30:57;;;;;;;7.73;5.40;;;;;;;22.56;80.15;94954.25;5054247;28;20456;-77
2022/08/12 04:33:25;;;;;;;6.50;5.90;;;;;;;22.51;80.45;94951.34;5053949;28;20446;-78
2022/08/12 04:35:55;;;;;;;6.50;5.37;;;;;;;22.50;80.39;94948.88;5054013;28;20507;-78
2022/08/12 04:38:23;;;;;;;5.80;5.40;;;;;;;22.54;79.75;94942.09;5053908;28;20446;-78
2022/08/12 04:40:50;;;;;;;6.20;5.70;;;;;;;22.55;79.78;94947.25;5053844;28;20473;-78
2022/08/12 04:43:17;;;;;;;5.17;4.77;;;;;;;22.56;80.18;94940.06;5053707;28;20803;-78
2022/08/12 04:45:45;;;;;;;8.33;5.17;;;;;;;22.59;80.05;94945.00;5053689;28;20457;-79
2022/08/12 04:48:12;;;;;;;6.10;5.60;;;;;;;22.54;79.66;94939.41;5053793;28;20437;-78
2022/08/12 04:50:39;;;;;;;6.63;6.03;;;;;;;22.52;79.93;94941.47;5034791;28;20438;-78
2022/08/12 04:53:08;;;;;;;6.33;5.70;;;;;;;22.48;80.46;94935.69;5053796;28;20472;-78
2022/08/12 04:55:37;;;;;;;8.70;5.37;;;;;;;22.47;80.72;94927.88;5053642;28;20454;-78
2022/08/12 04:58:03;;;;;;;10.07;5.60;;;;;;;22.54;80.88;94928.72;5053332;28;20524;-78
2022/08/12 05:00:31;;;;;;;8.10;6.30;;;;;;;22.49;80.20;94937.34;5053933;28;20547;-78
2022/08/12 05:02:58;;;;;;;6.67;5.37;;;;;;;22.45;80.36;94938.78;5055406;28;20466;-78
2022/08/12 05:05:25;;;;;;;9.60;5.83;;;;;;;22.49;80.39;94936.53;5053539;28;20533;-78
2022/08/12 05:07:52;;;;;;;7.40;6.10;;;;;;;22.47;81.01;94936.72;5053674;28;20716;-78
2022/08/12 05:10:22;;;;;;;9.67;5.73;;;;;;;22.41;80.98;94934.88;5053308;28;20823;-78
2022/08/12 05:12:56;;;;;;;5.77;5.37;;;;;;;22.44;80.68;94938.97;5053326;28;20450;-79
2022/08/12 05:15:22;;;;;;;6.20;5.17;;;;;;;22.49;80.47;94941.88;5053406;28;20519;-79
2022/08/12 05:17:49;;;;;;;7.33;5.53;;;;;;;22.52;79.93;94953.00;5053148;28;20778;-78
2022/08/12 05:20:18;;;;;;;7.50;6.30;;;;;;;22.49;80.37;94956.06;5053503;28;20851;-79
2022/08/12 05:22:45;;;;;;;7.20;6.33;;;;;;;22.44;80.55;94941.66;5052980;28;20874;-78
2022/08/12 05:25:12;;;;;;;12.67;7.40;;;;;;;22.32;81.71;94944.09;5053024;28;20453;-78
2022/08/12 05:27:40;;;;;;;8.33;5.90;;;;;;;22.34;81.78;94957.28;5053133;28;20484;-78
2022/08/12 05:30:09;;;;;;;11.37;6.60;;;;;;;22.37;82.38;94956.88;5052771;28;20450;-78
2022/08/12 05:32:36;;;;;;;9.37;6.63;;;;;;;22.30;83.19;94948.00;5052976;28;20477;-78
2022/08/12 05:35:05;;;;;;;9.60;6.63;;;;;;;22.29;83.31;94954.38;5034340;28;20452;-78
2022/08/12 05:37:33;;;;;;;6.90;6.30;;;;;;;22.36;84.14;94952.53;5052927;28;20537;-78
2022/08/12 05:40:00;;;;;;;10.40;6.87;;;;;;;22.40;83.42;94954.63;5052663;28;20512;-79
2022/08/12 05:42:27;;;;;;;10.90;6.80;;;;;;;22.43;83.81;94951.53;5052361;28;20449;-79
2022/08/12 05:44:55;;;;;;;5.93;5.23;;;;;;;22.49;82.77;94957.91;5052901;28;20449;-80
2022/08/12 05:47:22;;;;;;;11.70;7.50;;;;;;;22.60;81.58;94960.03;5017605;28;20802;-78
2022/08/12 05:49:49;;;;;;;8.53;7.77;;;;;;;22.72;81.22;94969.09;5052490;28;20446;-78
2022/08/12 05:52:16;;;;;;;19.73;7.20;;;;;;;22.78;81.32;94968.28;5052684;28;20483;-79
2022/08/12 05:54:44;;;;;;;7.87;7.17;;;;;;;22.85;80.67;94971.84;5052410;28;20996;-77
2022/08/12 05:57:11;;;;;;;8.40;7.60;;;;;;;22.89;80.81;94955.38;5052378;28;20457;-78
2022/08/12 05:59:40;;;;;;;9.00;8.20;;;;;;;22.97;81.71;94957.84;5052749;28;20473;-77
2022/08/12 06:02:10;;;;;;;10.80;8.70;;;;;;;22.95;80.58;94958.06;5052366;28;20607;-78
2022/08/12 06:04:42;;;;;;;14.43;7.87;;;;;;;22.91;78.35;94964.03;5052123;28;20960;-79
2022/08/12 06:07:11;;;;;;;8.87;8.10;;;;;;;22.84;78.17;94947.94;5052335;28;20449;-79
2022/08/12 06:09:38;;;;;;;9.10;8.20;;;;;;;22.92;81.17;94963.00;5051847;28;20951;-79
2022/08/12 06:12:06;;;;;;;7.80;7.10;;;;;;;22.97;81.48;94960.53;5052161;28;20452;-79
2022/08/12 06:14:35;;;;;;;8.60;7.90;;;;;;;23.02;80.32;94971.44;5052387;28;20441;-78
2022/08/12 06:17:02;;;;;;;7.53;6.70;;;;;;;23.11;80.13;94970.19;5052130;28;20500;-79
2022/08/12 06:19:31;;;;;;;8.67;7.87;;;;;;;23.19;79.89;94967.34;5050891;28;20465;-79
2022/08/12 06:21:58;;;;;;;8.77;7.27;;;;;;;23.17;77.02;94967.53;5051592;28;20545;-77
2022/08/12 06:24:27;;;;;;;8.80;6.50;;;;;;;23.23;78.96;94970.41;5052088;28;20446;-78
2022/08/12 06:26:55;;;;;;;7.50;6.70;;;;;;;23.25;79.61;94963.81;5052094;28;20520;-78
2022/08/12 06:29:22;;;;;;;8.10;7.00;;;;;;;23.20;78.94;94971.66;5051807;28;20446;-78
2022/08/12 06:31:51;;;;;;;8.00;7.40;;;;;;;23.24;80.22;94967.53;5017147;28;20450;-79
2022/08/12 06:34:18;;;;;;;8.57;7.67;;;;;;;23.12;79.05;94969.16;5052039;28;20445;-79
2022/08/12 06:36:47;;;;;;;8.93;8.00;;;;;;;22.82;80.15;94972.22;5051653;28;20464;-77
2022/08/12 06:39:15;;;;;;;8.60;7.80;;;;;;;22.90;80.83;94965.88;5051828;28;20963;-79
2022/08/12 06:45:11;;;;;;;7.83;7.20;;;;;;;23.13;80.91;94968.13;5055931;28;20437;-78
2022/08/12 06:47:39;;;;;;;10.70;6.90;;;;;;;23.28;80.61;94968.75;5045520;28;20458;-78
2022/08/12 06:50:06;;;;;;;11.77;6.30;;;;;;;23.37;79.65;94964.84;5055915;28;20445;-78
2022/08/12 06:52:35;;;;;;;9.20;8.40;;;;;;;23.51;79.87;94970.19;5020864;28;20955;-79
2022/08/12 06:55:01;;;;;;;6.97;6.37;;;;;;;23.57;81.17;94966.72;5020338;28;20430;-79
2022/08/12 06:57:28;;;;;;;8.47;7.67;;;;;;;23.54;81.66;94959.06;5055557;28;20488;-78
2022/08/12 06:59:55;;;;;;;10.40;9.07;;;;;;;23.23;79.64;94955.19;5055844;28;20813;-78
2022/08/12 07:02:24;;;;;;;10.83;8.13;;;;;;;23.33;81.22;94960.94;5055434;28;20482;-77
2022/08/12 07:04:52;;;;;;;13.80;9.00;;;;;;;22.84;77.54;94956.81;5055659;28;20575;-78
2022/08/12 07:07:18;;;;;;;9.80;8.87;;;;;;;23.09;79.29;94964.22;5055877;28;20529;-78
2022/08/12 07:09:47;;;;;;;10.60;9.60;;;;;;;23.05;77.56;94966.50;5055546;28;20453;-79
2022/08/12 07:12:18;;;;;;;10.17;8.73;;;;;;;22.74;78.98;94961.69;5055802;28;20445;-79
2022/08/12 07:14:45;;;;;;;9.70;8.70;;;;;;;22.45;78.77;94952.16;5055735;28;20465;-79
2022/08/12 07:17:11;;;;;;;10.33;9.27;;;;;;;22.30;81.84;94953.34;5055248;28;20453;-79
2022/08/12 07:19:38;;;;;;;9.23;8.33;;;;;;;22.43;81.54;94953.38;5055954;28;20823;-78
2022/08/12 07:22:06;;;;;;;9.20;8.00;;;;;;;22.66;81.45;94958.38;5055146;28;20488;-78
2022/08/12 07:24:33;;;;;;;9.13;8.37;;;;;;;22.86;81.01;94960.09;5055630;28;20446;-79
2022/08/12 07:27:01;;;;;;;8.93;8.03;;;;;;;23.10;80.78;94960.50;5055626;28;20453;-78
2022/08/12 07:29:28;;;;;;;9.60;7.83;;;;;;;23.03;79.76;94959.69;5055783;28;20452;-79
2022/08/12 07:31:58;;;;;;;11.80;7.77;;;;;;;23.06;77.10;94961.97;5036369;28;20457;-79
2022/08/12 07:34:25;;;;;;;7.83;7.13;;;;;;;23.18;76.07;94963.84;5054920;28;20441;-79
2022/08/12 07:36:51;;;;;;;11.80;7.87;;;;;;;23.47;76.66;94954.53;5055016;28;20446;-77
2022/08/12 07:39:18;;;;;;;8.63;6.90;;;;;;;24.05;75.28;94949.28;5055001;28;20449;-78
2022/08/12 07:41:45;;;;;;;12.33;7.47;;;;;;;24.60;70.00;94952.38;5054973;28;20558;-79
2022/08/12 07:44:14;;;;;;;8.97;7.53;;;;;;;24.80;69.08;94954.09;5054788;28;20493;-79
2022/08/12 07:46:43;;;;;;;8.60;7.73;;;;;;;24.99;67.83;94934.38;5054647;28;20944;-78
2022/08/12 07:49:14;;;;;;;7.53;6.83;;;;;;;25.16;66.90;94940.06;5054658;28;20453;-79
2022/08/12 07:51:43;;;;;;;8.60;7.90;;;;;;;25.53;64.86;94938.28;5054524;28;20449;-78
2022/08/12 07:54:11;;;;;;;7.07;6.43;;;;;;;26.03;64.79;94941.72;5054793;28;20804;-79
2022/08/12 07:56:41;;;;;;;8.13;7.33;;;;;;;25.72;62.23;94939.97;5054849;28;20449;-78
2022/08/12 07:59:08;;;;;;;8.03;6.47;;;;;;;25.90;62.95;94926.53;5054913;28;21003;-77
2022/08/12 08:01:37;;;;;;;6.73;5.87;;;;;;;26.31;63.63;94943.88;5054848;28;20488;-78
2022/08/12 08:06:50;;;;;;;6.63;6.13;;;;;;;26.67;60.50;94937.63;5054413;28;20486;-78
2022/08/12 08:09:21;;;;;;;6.23;5.73;;;;;;;26.70;59.02;94941.72;5054498;28;20442;-78
2022/08/12 08:14:32;;;;;;;6.10;5.60;;;;;;;26.57;57.76;94936.50;5054435;28;20575;-79
2022/08/12 08:17:05;;;;;;;6.47;5.77;;;;;;;26.34;59.83;94930.00;5054433;28;20492;-79
2022/08/12 08:19:32;;;;;;;6.27;5.67;;;;;;;26.54;60.54;94927.03;5054533;28;20816;-77
2022/08/12 08:21:59;;;;;;;5.90;5.40;;;;;;;27.07;58.71;94927.09;5054176;28;20870;-78
2022/08/12 08:24:27;;;;;;;6.40;5.80;;;;;;;27.42;56.68;94924.44;5054059;28;20823;-77
2022/08/12 08:26:57;;;;;;;6.30;5.80;;;;;;;27.84;56.48;94932.47;5054140;28;20445;-78
2022/08/12 08:29:25;;;;;;;6.33;5.43;;;;;;;28.01;54.11;94919.06;5018697;28;20434;-78
2022/08/12 08:31:55;;;;;;;5.93;5.40;;;;;;;28.10;53.43;94912.25;5054095;28;20453;-79
2022/08/12 08:34:25;;;;;;;10.00;5.37;;;;;;;28.24;53.49;94916.34;5053978;28;20450;-77
2022/08/12 08:36:52;;;;;;;5.40;5.00;;;;;;;28.42;53.65;94912.66;5054027;28;20465;-78
2022/08/12 08:39:20;;;;;;;5.30;4.90;;;;;;;28.30;54.21;94911.84;5053777;28;20438;-79
2022/08/12 08:44:31;;;;;;;5.97;5.27;;;;;;;28.69;52.06;94902.09;5053567;28;20939;-80
2022/08/12 08:47:00;;;;;;;5.93;5.50;;;;;;;28.54;52.12;94904.50;5053546;28;20449;-80
2022/08/12 08:49:28;;;;;;;5.53;5.13;;;;;;;28.69;51.68;94894.00;5053651;28;20433;-78
2022/08/12 08:51:54;;;;;;;8.10;5.30;;;;;;;28.60;51.84;94903.53;5053444;28;20441;-78
2022/08/12 08:54:23;;;;;;;5.70;5.30;;;;;;;28.55;50.54;94900.72;5054602;28;20472;-79
2022/08/12 08:56:51;;;;;;;11.13;5.27;;;;;;;28.64;50.71;94888.50;5053389;28;20878;-79
2022/08/12 08:59:20;;;;;;;5.57;5.13;;;;;;;28.85;50.54;94889.69;5018600;28;20501;-78
2022/08/12 09:01:47;;;;;;;5.40;4.80;;;;;;;28.50;48.60;94887.97;5053218;28;20485;-77
2022/08/12 09:04:14;;;;;;;4.97;4.57;;;;;;;28.79;49.38;94877.97;5052720;28;20936;-78
2022/08/12 09:06:42;;;;;;;10.33;4.90;;;;;;;29.02;51.06;94889.72;5053143;28;20442;-78
2022/08/12 09:09:13;;;;;;;5.80;5.20;;;;;;;29.13;48.35;94886.94;5053506;28;20450;-78
2022/08/12 09:14:24;;;;;;;6.00;4.50;;;;;;;29.24;46.50;94883.34;5053334;28;20499;-80
2022/08/12 09:16:51;;;;;;;4.93;4.57;;;;;;;29.31;47.17;94880.47;5053225;28;20445;-80
2022/08/12 09:19:18;;;;;;;4.83;4.50;;;;;;;29.23;47.22;94883.59;5053291;28;20445;-79
2022/08/12 09:21:47;;;;;;;4.93;4.60;;;;;;;28.90;46.60;94879.78;5053186;28;20492;-78
2022/08/12 09:24:14;;;;;;;5.20;4.70;;;;;;;28.82;46.16;94877.47;5053550;28;20481;-78
2022/08/12 09:26:42;;;;;;;5.70;5.03;;;;;;;28.74;45.70;94868.94;5053194;28;20481;-79
2022/08/12 09:29:09;;;;;;;4.53;4.13;;;;;;;28.69;47.83;94869.69;5017704;28;20453;-78
2022/08/12 09:31:35;;;;;;;4.50;4.20;;;;;;;28.80;47.08;94866.09;5053075;28;20437;-78
2022/08/12 09:34:03;;;;;;;5.00;4.60;;;;;;;28.43;47.19;94865.69;5053126;28;20442;-78
2022/08/12 09:36:30;;;;;;;4.50;4.20;;;;;;;28.27;46.16;94866.44;5052462;28;20540;-79
2022/08/12 09:39:01;;;;;;;5.03;4.20;;;;;;;28.55;46.27;94865.63;5053022;28;20480;-79
2022/08/12 09:41:28;;;;;;;4.77;4.47;;;;;;;28.50;45.11;94865.53;5052434;28;20484;-77
2022/08/12 09:46:41;;;;;;;4.50;4.20;;;;;;;28.36;46.97;94862.34;5052452;28;20440;-78
2022/08/12 09:49:09;;;;;;;5.17;4.70;;;;;;;28.22;46.19;94856.34;5052540;28;20484;-79
2022/08/12 09:51:37;;;;;;;6.73;4.13;;;;;;;28.17;49.71;94860.84;5052470;28;20449;-78
2022/08/12 09:54:05;;;;;;;4.50;4.10;;;;;;;28.06;48.25;94862.53;5017519;28;20485;-78
2022/08/12 09:56:33;;;;;;;5.53;5.03;;;;;;;27.98;48.46;94852.09;5052527;28;20445;-79
2022/08/12 09:59:00;;;;;;;5.20;4.80;;;;;;;27.83;48.47;94854.47;5017280;28;20550;-78
2022/08/12 10:01:26;;;;;;;5.07;4.20;;;;;;;27.88;48.97;94849.19;5052181;28;20434;-78
2022/08/12 10:03:53;;;;;;;6.63;3.73;;;;;;;27.77;49.41;94845.47;5017442;28;20446;-78
2022/08/12 10:06:20;;;;;;;7.77;4.67;;;;;;;27.86;49.60;94848.59;5052286;28;20442;-78
2022/08/12 10:08:47;;;;;;;5.87;4.40;;;;;;;28.06;49.24;94846.34;5052071;28;20454;-78
2022/08/12 10:13:59;;;;;;;8.80;4.67;;;;;;;28.20;47.95;94836.06;5052231;28;20515;-78
2022/08/12 10:16:27;;;;;;;4.70;4.40;;;;;;;28.18;50.47;94835.50;5051692;28;20446;-79
2022/08/12 10:18:56;;;;;;;5.30;4.50;;;;;;;28.19;49.77;94829.84;5051999;28;20449;-78
2022/08/12 10:21:24;;;;;;;6.77;4.80;;;;;;;28.19;49.47;94827.16;5051773;28;20442;-78
2022/08/12 10:23:53;;;;;;;4.03;3.73;;;;;;;28.14;47.26;94824.38;5051835;28;20805;-79
2022/08/12 10:31:52;;;;;;;4.77;4.17;;;;;;;27.64;46.92;94816.06;5051793;28;20441;-79
2022/08/12 10:34:21;;;;;;;5.23;4.83;;;;;;;27.85;47.97;94814.59;5052258;28;20463;-79
2022/08/12 10:36:48;;;;;;;4.20;3.97;;;;;;;28.00;47.17;94813.00;5051658;28;20449;-78
2022/08/12 10:39:17;;;;;;;4.53;3.97;;;;;;;28.12;46.36;94814.88;5051784;28;20453;-79
2022/08/12 10:44:27;;;;;;;4.87;4.40;;;;;;;28.12;46.10;94810.28;4990175;28;20433;-78
2022/08/12 10:46:55;;;;;;;4.37;4.07;;;;;;;28.09;47.23;94818.88;4990028;28;20503;-79
2022/08/12 10:49:26;;;;;;;7.63;4.33;;;;;;;28.01;46.93;94809.25;4990190;28;20545;-79
2022/08/12 10:51:53;;;;;;;4.10;3.80;;;;;;;27.87;44.20;94817.88;4990147;28;20464;-78
2022/08/12 10:54:21;;;;;;;4.80;4.40;;;;;;;27.85;43.41;94811.91;4989974;28;20455;-78
2022/08/12 10:56:50;;;;;;;4.33;4.03;;;;;;;27.85;44.89;94809.22;4990100;28;20444;-79
2022/08/12 10:59:18;;;;;;;5.40;4.90;;;;;;;27.88;45.16;94800.63;4989920;28;20907;-78
2022/08/12 11:01:45;;;;;;;6.60;4.97;;;;;;;27.97;46.81;94805.41;4989825;28;20524;-79
2022/08/12 11:04:12;;;;;;;5.10;4.57;;;;;;;28.09;45.37;94794.59;4973535;28;21102;-78
2022/08/12 11:06:46;;;;;;;16.27;4.30;;;;;;;28.32;46.90;94790.97;4989946;28;20448;-78
2022/08/12 11:09:16;;;;;;;5.20;4.80;;;;;;;28.44;44.41;94791.75;4989815;28;20456;-79
2022/08/12 11:11:43;;;;;;;4.20;3.90;;;;;;;28.56;45.65;94787.09;4989815;28;20948;-78
2022/08/12 11:14:11;;;;;;;5.53;3.90;;;;;;;28.69;45.05;94792.19;4989737;28;20444;-78
2022/08/12 11:16:38;;;;;;;6.40;4.67;;;;;;;28.66;43.44;94789.97;4957585;28;21021;-78
2022/08/12 11:19:05;;;;;;;4.57;4.27;;;;;;;28.65;44.99;94782.94;4989869;28;20615;-78
2022/08/12 11:21:31;;;;;;;5.50;5.03;;;;;;;28.54;44.14;94785.69;5014907;28;20449;-78
2022/08/12 11:23:58;;;;;;;5.43;4.07;;;;;;;28.40;45.58;94789.78;5051146;28;20481;-78
2022/08/12 11:26:25;;;;;;;5.37;5.00;;;;;;;28.36;44.74;94781.34;5052491;28;20453;-78
2022/08/12 11:28:52;;;;;;;4.57;4.17;;;;;;;28.23;44.79;94779.72;5055363;28;20468;-77
2022/08/12 11:31:20;;;;;;;4.97;4.57;;;;;;;28.07;46.19;94780.53;5055330;28;20512;-79
2022/08/12 11:33:48;;;;;;;7.00;5.00;;;;;;;27.97;47.13;94780.31;5036259;28;20442;-79
2022/08/12 11:36:15;;;;;;;4.13;3.83;;;;;;;27.82;46.70;94777.31;5054958;28;20450;-79
2022/08/12 11:38:42;;;;;;;7.80;4.90;;;;;;;27.71;47.90;94771.72;5054650;28;20809;-79
2022/08/12 11:41:10;;;;;;;6.83;5.23;;;;;;;27.65;49.06;94771.84;5055168;28;20445;-79
2022/08/12 11:43:36;;;;;;;4.90;4.60;;;;;;;27.58;50.04;94777.34;5055306;28;20484;-78
2022/08/12 11:46:03;;;;;;;5.77;5.27;;;;;;;27.57;50.46;94775.72;5054721;28;20928;-78
2022/08/12 11:48:38;;;;;;;5.40;4.90;;;;;;;27.50;49.79;94775.03;5054786;28;20446;-79
2022/08/12 11:51:06;;;;;;;4.83;4.43;;;;;;;27.49;51.10;94778.78;5019702;28;20463;-79
2022/08/12 11:53:33;;;;;;;4.90;4.50;;;;;;;27.40;51.92;94774.81;5054917;28;20473;-79
2022/08/12 11:56:00;;;;;;;14.33;4.67;;;;;;;27.42;53.47;94770.81;5054675;28;20450;-79
2022/08/12 11:58:27;;;;;;;4.77;4.40;;;;;;;27.39;53.46;94771.28;5054407;28;20995;-78
2022/08/12 12:00:53;;;;;;;5.17;4.77;;;;;;;27.37;53.84;94772.59;5054711;28;20434;-80
2022/08/12 12:03:20;;;;;;;9.50;5.03;;;;;;;27.37;53.32;94773.41;5054400;28;20832;-79
2022/08/12 12:05:48;;;;;;;5.63;4.53;;;;;;;27.37;52.92;94762.63;5054490;28;20441;-79
2022/08/12 12:08:21;;;;;;;8.97;4.70;;;;;;;27.36;52.09;94773.66;5019173;28;20468;-79
2022/08/12 12:10:49;;;;;;;5.23;4.80;;;;;;;27.31;52.93;94765.47;5054374;28;20442;-78
2022/08/12 12:13:16;;;;;;;5.07;4.60;;;;;;;27.34;53.21;94776.56;5054145;28;20442;-78
2022/08/12 12:15:43;;;;;;;5.30;4.90;;;;;;;27.35;54.92;94785.47;5054262;28;20438;-79
2022/08/12 12:18:20;;;;;;;4.63;4.33;;;;;;;27.32;53.51;94780.56;5054094;28;20858;-79
2022/08/12 12:20:49;;;;;;;5.93;4.53;;;;;;;27.27;53.60;94785.84;5053932;28;20542;-79
2022/08/12 12:23:15;;;;;;;5.43;4.87;;;;;;;27.27;53.91;94781.28;5053927;28;20852;-79
2022/08/12 12:25:42;;;;;;;5.90;5.50;;;;;;;27.21;52.47;94770.63;5019018;28;20453;-78
2022/08/12 12:28:09;;;;;;;5.20;4.90;;;;;;;27.25;51.65;94778.00;5053928;28;20449;-78
2022/08/12 12:30:36;;;;;;;4.50;4.10;;;;;;;27.24;52.34;94776.38;5035139;28;20446;-79
2022/08/12 12:33:04;;;;;;;13.03;4.73;;;;;;;27.24;52.60;94772.84;5020563;28;20450;-78
2022/08/12 12:35:32;;;;;;;6.10;5.50;;;;;;;27.19;52.96;94768.19;5053807;28;20948;-78
2022/08/12 12:38:01;;;;;;;5.27;4.50;;;;;;;27.15;52.12;94762.41;5019238;28;20445;-79
2022/08/12 12:40:29;;;;;;;4.60;4.30;;;;;;;27.21;52.39;94765.25;5053659;28;20446;-78
2022/08/12 12:42:57;;;;;;;6.00;4.87;;;;;;;26.65;54.51;94769.31;5053596;28;20481;-80
2022/08/12 12:45:24;;;;;;;5.90;5.30;;;;;;;26.38;55.71;94764.34;5053798;28;20525;-80
2022/08/12 12:47:56;;;;;;;8.13;6.87;;;;;;;25.79;56.92;94765.16;5018434;28;20445;-78
2022/08/12 12:50:24;;;;;;;6.10;5.50;;;;;;;25.30;60.68;94765.09;5053645;28;20476;-80
2022/08/12 12:52:51;;;;;;;8.03;5.20;;;;;;;25.37;63.56;94767.72;5053539;28;20830;-79
2022/08/12 12:55:20;;;;;;;5.70;5.10;;;;;;;25.23;61.15;94768.91;5053595;28;20481;-79
2022/08/12 12:57:47;;;;;;;7.83;5.77;;;;;;;25.14;63.52;94765.69;5053395;28;20513;-79
2022/08/12 13:00:16;;;;;;;6.23;5.70;;;;;;;25.26;61.96;94765.78;5053292;28;20449;-79
2022/08/12 13:02:51;;;;;;;6.20;5.60;;;;;;;25.33;63.26;94761.16;5053397;28;20509;-78
2022/08/12 13:05:19;;;;;;;6.73;5.70;;;;;;;25.59;60.84;94768.06;5053257;28;20490;-78
2022/08/12 13:07:46;;;;;;;6.30;5.80;;;;;;;25.62;58.67;94762.25;5052908;28;20971;-79
2022/08/12 13:10:13;;;;;;;6.33;5.83;;;;;;;25.71;56.65;94754.72;5018301;28;20446;-79
2022/08/12 13:12:41;;;;;;;6.43;5.80;;;;;;;25.63;56.77;94751.25;5053096;28;20457;-79
2022/08/12 13:15:14;;;;;;;5.43;5.03;;;;;;;25.50;58.30;94758.69;5053244;28;20472;-78
2022/08/12 13:17:46;;;;;;;5.30;4.90;;;;;;;25.40;58.56;94747.63;5053347;28;20813;-79
2022/08/12 13:20:14;;;;;;;5.10;4.70;;;;;;;25.55;59.47;94748.06;5053054;28;20453;-79
2022/08/12 13:22:41;;;;;;;5.93;5.17;;;;;;;25.52;59.44;94743.16;5052956;28;20853;-79
2022/08/12 13:25:08;;;;;;;4.87;4.47;;;;;;;25.39;56.03;94754.88;5052973;28;20430;-79
2022/08/12 13:27:40;;;;;;;6.40;5.10;;;;;;;25.38;58.97;94747.03;5052965;28;20449;-78
2022/08/12 13:30:11;;;;;;;7.50;5.20;;;;;;;25.62;58.52;94746.13;5052834;28;20450;-79
2022/08/12 13:32:44;;;;;;;5.20;4.80;;;;;;;25.57;59.30;94754.03;4985924;28;20452;-78
2022/08/12 13:35:15;;;;;;;5.00;4.70;;;;;;;25.30;58.59;94757.03;5052801;28;20936;-80